sensor_id;sensor_type;location;lat;lon;timestamp;P1;durP1;ratioP1;P2;durP2;ratioP2
16039;SDS011;8124;48.634;8.120;2023-05-14T00:03:07;41.28;;;36.42;;
16039;SDS011;8124;48.634;8.120;2023-05-14T00:08:10;40.83;;;36.33;;
16039;SDS011;8124;48.634;8.120;2023-05-14T00:13:13;40.88;;;36.42;;
16039;SDS011;8124;48.634;8.120;2023-05-14T00:18:17;40.47;;;36.05;;
16039;SDS011;8124;48.634;8.120;2023-05-14T00:23:20;40.67;;;36.22;;
16039;SDS011;8124;48.634;8.120;2023-05-14T00:28:24;41.40;;;36.92;;
16039;SDS011;8124;48.634;8.120;2023-05-14T00:33:28;41.40;;;36.53;;
16039;SDS011;8124;48.634;8.120;2023-05-14T00:38:31;41.75;;;37.10;;
16039;SDS011;8124;48.634;8.120;2023-05-14T00:43:34;41.55;;;36.53;;
16039;SDS011;8124;48.634;8.120;2023-05-14T00:48:38;42.90;;;36.67;;
16039;SDS011;8124;48.634;8.120;2023-05-14T00:53:42;42.75;;;36.53;;
16039;SDS011;8124;48.634;8.120;2023-05-14T00:58:45;40.47;;;36.08;;
16039;SDS011;8124;48.634;8.120;2023-05-14T01:03:49;40.42;;;36.03;;
16039;SDS011;8124;48.634;8.120;2023-05-14T01:08:56;40.75;;;36.30;;
16039;SDS011;8124;48.634;8.120;2023-05-14T01:14:06;40.38;;;35.97;;
16039;SDS011;8124;48.634;8.120;2023-05-14T01:19:20;40.55;;;36.15;;
16039;SDS011;8124;48.634;8.120;2023-05-14T01:24:28;41.50;;;36.80;;
16039;SDS011;8124;48.634;8.120;2023-05-14T01:29:31;41.17;;;36.58;;
16039;SDS011;8124;48.634;8.120;2023-05-14T01:34:38;40.78;;;36.20;;
16039;SDS011;8124;48.634;8.120;2023-05-14T01:39:43;41.28;;;36.78;;
16039;SDS011;8124;48.634;8.120;2023-05-14T01:44:48;40.20;;;35.72;;
16039;SDS011;8124;48.634;8.120;2023-05-14T01:49:51;39.97;;;35.58;;
16039;SDS011;8124;48.634;8.120;2023-05-14T01:54:55;40.95;;;36.45;;
16039;SDS011;8124;48.634;8.120;2023-05-14T02:00:00;41.30;;;36.47;;
16039;SDS011;8124;48.634;8.120;2023-05-14T02:05:14;40.75;;;36.30;;
16039;SDS011;8124;48.634;8.120;2023-05-14T02:10:18;40.63;;;36.22;;
16039;SDS011;8124;48.634;8.120;2023-05-14T02:15:24;40.25;;;35.85;;
16039;SDS011;8124;48.634;8.120;2023-05-14T02:20:27;40.22;;;35.83;;
16039;SDS011;8124;48.634;8.120;2023-05-14T02:25:31;40.28;;;35.88;;
16039;SDS011;8124;48.634;8.120;2023-05-14T02:30:35;42.70;;;36.00;;
16039;SDS011;8124;48.634;8.120;2023-05-14T02:35:38;40.42;;;36.05;;
16039;SDS011;8124;48.634;8.120;2023-05-14T02:40:42;40.15;;;35.75;;
16039;SDS011;8124;48.634;8.120;2023-05-14T02:45:45;41.70;;;36.53;;
16039;SDS011;8124;48.634;8.120;2023-05-14T02:50:48;42.25;;;35.55;;
16039;SDS011;8124;48.634;8.120;2023-05-14T02:55:53;40.95;;;36.47;;
16039;SDS011;8124;48.634;8.120;2023-05-14T03:00:57;40.80;;;35.95;;
16039;SDS011;8124;48.634;8.120;2023-05-14T03:06:00;41.28;;;36.78;;
16039;SDS011;8124;48.634;8.120;2023-05-14T03:11:05;42.22;;;35.72;;
16039;SDS011;8124;48.634;8.120;2023-05-14T03:16:08;41.60;;;36.38;;
16039;SDS011;8124;48.634;8.120;2023-05-14T03:21:11;40.38;;;35.80;;
16039;SDS011;8124;48.634;8.120;2023-05-14T03:26:16;40.50;;;35.97;;
16039;SDS011;8124;48.634;8.120;2023-05-14T03:31:18;40.55;;;36.15;;
16039;SDS011;8124;48.634;8.120;2023-05-14T03:36:22;40.25;;;35.85;;
16039;SDS011;8124;48.634;8.120;2023-05-14T03:41:27;41.10;;;35.95;;
16039;SDS011;8124;48.634;8.120;2023-05-14T03:46:30;40.05;;;35.70;;
16039;SDS011;8124;48.634;8.120;2023-05-14T03:51:33;40.88;;;36.00;;
16039;SDS011;8124;48.634;8.120;2023-05-14T03:56:40;40.28;;;35.67;;
16039;SDS011;8124;48.634;8.120;2023-05-14T04:01:43;40.88;;;36.47;;
16039;SDS011;8124;48.634;8.120;2023-05-14T04:06:46;44.15;;;36.10;;
16039;SDS011;8124;48.634;8.120;2023-05-14T04:11:50;40.30;;;35.90;;
16039;SDS011;8124;48.634;8.120;2023-05-14T04:16:53;40.65;;;36.20;;
16039;SDS011;8124;48.634;8.120;2023-05-14T04:21:56;40.60;;;35.47;;
16039;SDS011;8124;48.634;8.120;2023-05-14T04:27:00;44.83;;;35.83;;
16039;SDS011;8124;48.634;8.120;2023-05-14T04:32:10;41.38;;;36.50;;
16039;SDS011;8124;48.634;8.120;2023-05-14T04:37:13;40.70;;;35.58;;
16039;SDS011;8124;48.634;8.120;2023-05-14T04:42:18;40.75;;;35.70;;
16039;SDS011;8124;48.634;8.120;2023-05-14T04:52:43;42.88;;;36.45;;
16039;SDS011;8124;48.634;8.120;2023-05-14T04:57:47;42.17;;;37.67;;
16039;SDS011;8124;48.634;8.120;2023-05-14T05:02:50;41.25;;;36.20;;
16039;SDS011;8124;48.634;8.120;2023-05-14T05:07:53;43.00;;;36.75;;
16039;SDS011;8124;48.634;8.120;2023-05-14T05:12:58;42.38;;;36.58;;
16039;SDS011;8124;48.634;8.120;2023-05-14T05:18:02;41.03;;;36.58;;
16039;SDS011;8124;48.634;8.120;2023-05-14T05:23:05;44.00;;;38.38;;
16039;SDS011;8124;48.634;8.120;2023-05-14T05:28:09;44.25;;;38.70;;
16039;SDS011;8124;48.634;8.120;2023-05-14T05:33:12;43.08;;;36.92;;
16039;SDS011;8124;48.634;8.120;2023-05-14T05:38:15;43.90;;;38.58;;
16039;SDS011;8124;48.634;8.120;2023-05-14T05:43:20;41.90;;;37.30;;
16039;SDS011;8124;48.634;8.120;2023-05-14T05:48:23;41.97;;;37.38;;
16039;SDS011;8124;48.634;8.120;2023-05-14T05:53:26;43.20;;;38.45;;
16039;SDS011;8124;48.634;8.120;2023-05-14T05:58:30;44.65;;;39.75;;
16039;SDS011;8124;48.634;8.120;2023-05-14T06:03:34;42.92;;;38.22;;
16039;SDS011;8124;48.634;8.120;2023-05-14T06:08:37;43.58;;;38.08;;
16039;SDS011;8124;48.634;8.120;2023-05-14T06:13:41;45.58;;;38.45;;
16039;SDS011;8124;48.634;8.120;2023-05-14T06:18:44;43.10;;;38.40;;
16039;SDS011;8124;48.634;8.120;2023-05-14T06:23:47;45.78;;;38.22;;
16039;SDS011;8124;48.634;8.120;2023-05-14T06:28:51;43.85;;;38.08;;
16039;SDS011;8124;48.634;8.120;2023-05-14T06:33:55;42.60;;;37.78;;
16039;SDS011;8124;48.634;8.120;2023-05-14T06:38:58;42.97;;;37.92;;
16039;SDS011;8124;48.634;8.120;2023-05-14T06:44:02;41.83;;;37.22;;
16039;SDS011;8124;48.634;8.120;2023-05-14T06:49:05;43.10;;;38.40;;
16039;SDS011;8124;48.634;8.120;2023-05-14T06:54:08;43.22;;;37.83;;
16039;SDS011;8124;48.634;8.120;2023-05-14T06:59:13;42.33;;;37.65;;
16039;SDS011;8124;48.634;8.120;2023-05-14T07:04:16;42.88;;;38.17;;
16039;SDS011;8124;48.634;8.120;2023-05-14T07:09:19;42.35;;;37.75;;
16039;SDS011;8124;48.634;8.120;2023-05-14T07:14:24;43.15;;;38.42;;
16039;SDS011;8124;48.634;8.120;2023-05-14T07:19:27;43.63;;;38.35;;
16039;SDS011;8124;48.634;8.120;2023-05-14T07:24:30;42.95;;;38.28;;
16039;SDS011;8124;48.634;8.120;2023-05-14T07:29:34;44.80;;;39.13;;
16039;SDS011;8124;48.634;8.120;2023-05-14T07:34:37;45.65;;;38.92;;
16039;SDS011;8124;48.634;8.120;2023-05-14T07:39:48;43.67;;;38.97;;
16039;SDS011;8124;48.634;8.120;2023-05-14T07:45:02;48.65;;;40.03;;
16039;SDS011;8124;48.634;8.120;2023-05-14T07:50:06;45.45;;;39.30;;
16039;SDS011;8124;48.634;8.120;2023-05-14T07:55:10;45.08;;;40.15;;
16039;SDS011;8124;48.634;8.120;2023-05-14T08:00:15;44.38;;;39.55;;
16039;SDS011;8124;48.634;8.120;2023-05-14T08:05:18;45.20;;;40.28;;
16039;SDS011;8124;48.634;8.120;2023-05-14T08:10:22;44.70;;;39.80;;
16039;SDS011;8124;48.634;8.120;2023-05-14T08:15:27;45.42;;;40.00;;
16039;SDS011;8124;48.634;8.120;2023-05-14T08:20:42;43.60;;;38.80;;
16039;SDS011;8124;48.634;8.120;2023-05-14T08:25:55;45.05;;;39.92;;
16039;SDS011;8124;48.634;8.120;2023-05-14T08:31:00;45.40;;;39.22;;
16039;SDS011;8124;48.634;8.120;2023-05-14T08:36:04;45.58;;;38.58;;
16039;SDS011;8124;48.634;8.120;2023-05-14T08:41:07;44.05;;;39.20;;
16039;SDS011;8124;48.634;8.120;2023-05-14T08:46:13;44.95;;;39.20;;
16039;SDS011;8124;48.634;8.120;2023-05-14T08:51:19;47.33;;;40.00;;
16039;SDS011;8124;48.634;8.120;2023-05-14T08:56:22;44.28;;;39.45;;
16039;SDS011;8124;48.634;8.120;2023-05-14T09:01:29;45.35;;;39.03;;
16039;SDS011;8124;48.634;8.120;2023-05-14T09:06:33;43.45;;;38.65;;
16039;SDS011;8124;48.634;8.120;2023-05-14T09:11:39;43.60;;;38.83;;
16039;SDS011;8124;48.634;8.120;2023-05-14T09:16:44;43.00;;;38.30;;
16039;SDS011;8124;48.634;8.120;2023-05-14T09:21:49;46.35;;;39.30;;
16039;SDS011;8124;48.634;8.120;2023-05-14T09:26:53;43.88;;;38.63;;
16039;SDS011;8124;48.634;8.120;2023-05-14T09:31:58;45.78;;;38.53;;
16039;SDS011;8124;48.634;8.120;2023-05-14T09:37:06;43.58;;;38.53;;
16039;SDS011;8124;48.634;8.120;2023-05-14T09:42:10;43.03;;;38.33;;
16039;SDS011;8124;48.634;8.120;2023-05-14T09:47:15;43.95;;;38.42;;
16039;SDS011;8124;48.634;8.120;2023-05-14T09:52:18;43.75;;;38.88;;
16039;SDS011;8124;48.634;8.120;2023-05-14T09:57:21;42.38;;;37.78;;
16039;SDS011;8124;48.634;8.120;2023-05-14T10:02:28;42.63;;;37.85;;
16039;SDS011;8124;48.634;8.120;2023-05-14T10:07:38;43.42;;;38.63;;
16039;SDS011;8124;48.634;8.120;2023-05-14T10:12:44;42.80;;;38.10;;
16039;SDS011;8124;48.634;8.120;2023-05-14T10:17:55;42.55;;;37.95;;
16039;SDS011;8124;48.634;8.120;2023-05-14T10:23:01;42.17;;;37.60;;
16039;SDS011;8124;48.634;8.120;2023-05-14T10:28:04;41.58;;;37.08;;
16039;SDS011;8124;48.634;8.120;2023-05-14T10:33:10;43.47;;;38.60;;
16039;SDS011;8124;48.634;8.120;2023-05-14T10:38:15;42.85;;;37.88;;
16039;SDS011;8124;48.634;8.120;2023-05-14T10:43:18;42.25;;;37.65;;
16039;SDS011;8124;48.634;8.120;2023-05-14T10:48:24;41.97;;;37.45;;
16039;SDS011;8124;48.634;8.120;2023-05-14T10:53:34;42.63;;;38.03;;
16039;SDS011;8124;48.634;8.120;2023-05-14T10:58:38;42.15;;;37.28;;
16039;SDS011;8124;48.634;8.120;2023-05-14T11:03:45;43.05;;;38.35;;
16039;SDS011;8124;48.634;8.120;2023-05-14T11:08:48;43.08;;;37.90;;
16039;SDS011;8124;48.634;8.120;2023-05-14T11:13:52;42.83;;;38.13;;
16039;SDS011;8124;48.634;8.120;2023-05-14T11:19:01;42.85;;;38.25;;
16039;SDS011;8124;48.634;8.120;2023-05-14T11:24:05;42.28;;;37.67;;
16039;SDS011;8124;48.634;8.120;2023-05-14T11:29:08;42.25;;;37.67;;
16039;SDS011;8124;48.634;8.120;2023-05-14T11:34:13;45.53;;;39.78;;
16039;SDS011;8124;48.634;8.120;2023-05-14T11:39:16;43.78;;;38.78;;
16039;SDS011;8124;48.634;8.120;2023-05-14T11:44:20;42.53;;;37.92;;
16039;SDS011;8124;48.634;8.120;2023-05-14T11:49:25;43.15;;;38.45;;
16039;SDS011;8124;48.634;8.120;2023-05-14T11:54:43;42.70;;;38.05;;
16039;SDS011;8124;48.634;8.120;2023-05-14T11:59:47;42.72;;;38.13;;
16039;SDS011;8124;48.634;8.120;2023-05-14T12:04:54;45.45;;;38.70;;
16039;SDS011;8124;48.634;8.120;2023-05-14T12:09:59;43.53;;;38.83;;
16039;SDS011;8124;48.634;8.120;2023-05-14T12:15:09;43.03;;;38.40;;
16039;SDS011;8124;48.634;8.120;2023-05-14T12:26:26;44.70;;;38.20;;
16039;SDS011;8124;48.634;8.120;2023-05-14T12:31:49;43.55;;;38.85;;
16039;SDS011;8124;48.634;8.120;2023-05-14T12:37:22;43.90;;;39.10;;
16039;SDS011;8124;48.634;8.120;2023-05-14T12:42:36;44.33;;;39.15;;
16039;SDS011;8124;48.634;8.120;2023-05-14T12:47:44;43.85;;;38.53;;
16039;SDS011;8124;48.634;8.120;2023-05-14T12:52:55;43.58;;;38.85;;
16039;SDS011;8124;48.634;8.120;2023-05-14T12:58:02;43.38;;;38.63;;
16039;SDS011;8124;48.634;8.120;2023-05-14T13:03:09;43.13;;;38.42;;
16039;SDS011;8124;48.634;8.120;2023-05-14T13:08:34;43.60;;;38.90;;
16039;SDS011;8124;48.634;8.120;2023-05-14T13:14:00;43.92;;;39.15;;
16039;SDS011;8124;48.634;8.120;2023-05-14T13:19:35;42.65;;;38.08;;
16039;SDS011;8124;48.634;8.120;2023-05-14T13:24:47;43.30;;;38.58;;
16039;SDS011;8124;48.634;8.120;2023-05-14T13:30:24;45.92;;;39.55;;
16039;SDS011;8124;48.634;8.120;2023-05-14T13:35:41;44.13;;;39.33;;
16039;SDS011;8124;48.634;8.120;2023-05-14T13:40:47;43.42;;;38.72;;
16039;SDS011;8124;48.634;8.120;2023-05-14T13:51:19;44.47;;;39.25;;
16039;SDS011;8124;48.634;8.120;2023-05-14T13:56:26;46.17;;;39.78;;
16039;SDS011;8124;48.634;8.120;2023-05-14T14:01:29;43.55;;;38.85;;
16039;SDS011;8124;48.634;8.120;2023-05-14T14:06:32;44.50;;;39.65;;
16039;SDS011;8124;48.634;8.120;2023-05-14T14:11:37;45.15;;;40.25;;
16039;SDS011;8124;48.634;8.120;2023-05-14T14:16:46;45.30;;;40.45;;
16039;SDS011;8124;48.634;8.120;2023-05-14T14:21:49;45.40;;;40.30;;
16039;SDS011;8124;48.634;8.120;2023-05-14T14:26:55;44.33;;;39.55;;
16039;SDS011;8124;48.634;8.120;2023-05-14T14:31:59;44.17;;;39.45;;
16039;SDS011;8124;48.634;8.120;2023-05-14T14:37:02;44.42;;;39.63;;
16039;SDS011;8124;48.634;8.120;2023-05-14T14:42:14;46.28;;;39.90;;
16039;SDS011;8124;48.634;8.120;2023-05-14T14:47:17;44.80;;;39.65;;
16039;SDS011;8124;48.634;8.120;2023-05-14T14:52:29;44.05;;;39.30;;
16039;SDS011;8124;48.634;8.120;2023-05-14T14:57:34;44.22;;;39.42;;
16039;SDS011;8124;48.634;8.120;2023-05-14T15:02:38;44.70;;;39.95;;
16039;SDS011;8124;48.634;8.120;2023-05-14T15:07:43;43.88;;;39.08;;
16039;SDS011;8124;48.634;8.120;2023-05-14T15:12:47;44.00;;;38.85;;
16039;SDS011;8124;48.634;8.120;2023-05-14T15:17:50;45.03;;;40.20;;
16039;SDS011;8124;48.634;8.120;2023-05-14T15:22:53;43.25;;;38.55;;
16039;SDS011;8124;48.634;8.120;2023-05-14T15:27:58;43.88;;;39.10;;
16039;SDS011;8124;48.634;8.120;2023-05-14T15:33:01;44.58;;;39.67;;
16039;SDS011;8124;48.634;8.120;2023-05-14T15:38:04;44.08;;;39.38;;
16039;SDS011;8124;48.634;8.120;2023-05-14T15:43:09;44.72;;;39.33;;
16039;SDS011;8124;48.634;8.120;2023-05-14T15:48:12;43.97;;;39.28;;
16039;SDS011;8124;48.634;8.120;2023-05-14T15:58:23;45.38;;;40.47;;
16039;SDS011;8124;48.634;8.120;2023-05-14T16:03:26;43.35;;;38.67;;
16039;SDS011;8124;48.634;8.120;2023-05-14T16:08:29;46.08;;;41.17;;
16039;SDS011;8124;48.634;8.120;2023-05-14T16:13:33;46.15;;;41.30;;
16039;SDS011;8124;48.634;8.120;2023-05-14T16:18:40;43.60;;;38.90;;
16039;SDS011;8124;48.634;8.120;2023-05-14T16:28:51;43.45;;;38.80;;
16039;SDS011;8124;48.634;8.120;2023-05-14T16:33:54;43.55;;;38.85;;
16039;SDS011;8124;48.634;8.120;2023-05-14T16:38:57;43.80;;;39.00;;
16039;SDS011;8124;48.634;8.120;2023-05-14T16:44:04;43.10;;;38.45;;
16039;SDS011;8124;48.634;8.120;2023-05-14T16:49:07;43.88;;;39.10;;
16039;SDS011;8124;48.634;8.120;2023-05-14T16:54:10;43.13;;;38.45;;
16039;SDS011;8124;48.634;8.120;2023-05-14T16:59:14;44.35;;;39.63;;
16039;SDS011;8124;48.634;8.120;2023-05-14T17:04:18;44.13;;;39.33;;
16039;SDS011;8124;48.634;8.120;2023-05-14T17:09:21;44.85;;;40.05;;
16039;SDS011;8124;48.634;8.120;2023-05-14T17:14:25;43.90;;;39.20;;
16039;SDS011;8124;48.634;8.120;2023-05-14T17:24:35;44.72;;;39.92;;
16039;SDS011;8124;48.634;8.120;2023-05-14T17:29:40;44.53;;;39.72;;
16039;SDS011;8124;48.634;8.120;2023-05-14T17:34:44;43.95;;;39.25;;
16039;SDS011;8124;48.634;8.120;2023-05-14T17:39:47;44.85;;;40.03;;
16039;SDS011;8124;48.634;8.120;2023-05-14T17:44:52;44.45;;;39.70;;
16039;SDS011;8124;48.634;8.120;2023-05-14T17:49:55;44.72;;;39.97;;
16039;SDS011;8124;48.634;8.120;2023-05-14T17:54:57;44.78;;;39.70;;
16039;SDS011;8124;48.634;8.120;2023-05-14T18:00:02;44.38;;;39.50;;
16039;SDS011;8124;48.634;8.120;2023-05-14T18:05:10;44.33;;;39.58;;
16039;SDS011;8124;48.634;8.120;2023-05-14T18:10:13;44.70;;;39.38;;
16039;SDS011;8124;48.634;8.120;2023-05-14T18:15:23;44.90;;;40.00;;
16039;SDS011;8124;48.634;8.120;2023-05-14T18:20:27;45.53;;;40.72;;
16039;SDS011;8124;48.634;8.120;2023-05-14T18:25:32;44.35;;;39.55;;
16039;SDS011;8124;48.634;8.120;2023-05-14T18:30:37;47.97;;;42.97;;
16039;SDS011;8124;48.634;8.120;2023-05-14T18:35:40;44.58;;;39.78;;
16039;SDS011;8124;48.634;8.120;2023-05-14T18:40:44;44.30;;;39.47;;
16039;SDS011;8124;48.634;8.120;2023-05-14T18:45:50;43.90;;;39.20;;
16039;SDS011;8124;48.634;8.120;2023-05-14T18:50:53;45.83;;;40.95;;
16039;SDS011;8124;48.634;8.120;2023-05-14T18:55:58;46.88;;;41.88;;
16039;SDS011;8124;48.634;8.120;2023-05-14T19:01:02;44.72;;;39.92;;
16039;SDS011;8124;48.634;8.120;2023-05-14T19:06:05;43.75;;;39.05;;
16039;SDS011;8124;48.634;8.120;2023-05-14T19:11:08;43.10;;;38.40;;
16039;SDS011;8124;48.634;8.120;2023-05-14T19:16:13;43.80;;;39.10;;
16039;SDS011;8124;48.634;8.120;2023-05-14T19:21:16;43.72;;;39.03;;
16039;SDS011;8124;48.634;8.120;2023-05-14T19:26:19;44.03;;;39.33;;
16039;SDS011;8124;48.634;8.120;2023-05-14T19:31:24;44.25;;;39.25;;
16039;SDS011;8124;48.634;8.120;2023-05-14T19:36:27;44.45;;;39.65;;
16039;SDS011;8124;48.634;8.120;2023-05-14T19:41:31;43.50;;;38.80;;
16039;SDS011;8124;48.634;8.120;2023-05-14T19:46:36;43.90;;;39.20;;
16039;SDS011;8124;48.634;8.120;2023-05-14T19:51:39;43.25;;;38.60;;
16039;SDS011;8124;48.634;8.120;2023-05-14T19:56:44;43.60;;;38.90;;
16039;SDS011;8124;48.634;8.120;2023-05-14T20:01:48;44.58;;;39.78;;
16039;SDS011;8124;48.634;8.120;2023-05-14T20:06:55;43.88;;;39.17;;
16039;SDS011;8124;48.634;8.120;2023-05-14T20:11:58;43.58;;;38.88;;
16039;SDS011;8124;48.634;8.120;2023-05-14T20:17:04;43.20;;;38.50;;
16039;SDS011;8124;48.634;8.120;2023-05-14T20:22:08;43.47;;;38.78;;
16039;SDS011;8124;48.634;8.120;2023-05-14T20:27:12;45.15;;;39.70;;
16039;SDS011;8124;48.634;8.120;2023-05-14T20:32:16;43.47;;;38.70;;
16039;SDS011;8124;48.634;8.120;2023-05-14T20:37:25;44.05;;;39.35;;
16039;SDS011;8124;48.634;8.120;2023-05-14T20:42:27;43.65;;;38.88;;
16039;SDS011;8124;48.634;8.120;2023-05-14T20:47:32;43.92;;;39.22;;
16039;SDS011;8124;48.634;8.120;2023-05-14T20:52:35;44.70;;;39.28;;
16039;SDS011;8124;48.634;8.120;2023-05-14T20:57:38;43.90;;;39.20;;
16039;SDS011;8124;48.634;8.120;2023-05-14T21:02:45;43.13;;;38.42;;
16039;SDS011;8124;48.634;8.120;2023-05-14T21:07:49;44.33;;;39.53;;
16039;SDS011;8124;48.634;8.120;2023-05-14T21:12:52;42.65;;;38.05;;
16039;SDS011;8124;48.634;8.120;2023-05-14T21:17:57;43.42;;;38.30;;
16039;SDS011;8124;48.634;8.120;2023-05-14T21:23:00;42.65;;;38.08;;
16039;SDS011;8124;48.634;8.120;2023-05-14T21:28:03;42.35;;;37.75;;
16039;SDS011;8124;48.634;8.120;2023-05-14T21:33:07;43.80;;;39.10;;
16039;SDS011;8124;48.634;8.120;2023-05-14T21:38:10;43.55;;;38.85;;
16039;SDS011;8124;48.634;8.120;2023-05-14T21:43:13;43.50;;;38.83;;
16039;SDS011;8124;48.634;8.120;2023-05-14T21:48:18;44.13;;;39.38;;
16039;SDS011;8124;48.634;8.120;2023-05-14T21:53:24;43.83;;;39.13;;
16039;SDS011;8124;48.634;8.120;2023-05-14T21:58:26;42.97;;;38.35;;
16039;SDS011;8124;48.634;8.120;2023-05-14T22:03:31;43.38;;;38.67;;
16039;SDS011;8124;48.634;8.120;2023-05-14T22:08:34;43.22;;;38.45;;
16039;SDS011;8124;48.634;8.120;2023-05-14T22:13:37;42.60;;;37.60;;
16039;SDS011;8124;48.634;8.120;2023-05-14T22:18:42;43.15;;;38.45;;
16039;SDS011;8124;48.634;8.120;2023-05-14T22:23:45;42.58;;;38.00;;
16039;SDS011;8124;48.634;8.120;2023-05-14T22:28:50;42.58;;;37.97;;
16039;SDS011;8124;48.634;8.120;2023-05-14T22:33:54;42.22;;;37.63;;
16039;SDS011;8124;48.634;8.120;2023-05-14T22:38:57;42.25;;;37.65;;
16039;SDS011;8124;48.634;8.120;2023-05-14T22:44:00;41.85;;;37.35;;
16039;SDS011;8124;48.634;8.120;2023-05-14T22:49:04;43.97;;;38.17;;
16039;SDS011;8124;48.634;8.120;2023-05-14T22:54:07;42.97;;;38.28;;
16039;SDS011;8124;48.634;8.120;2023-05-14T22:59:10;42.97;;;37.92;;
16039;SDS011;8124;48.634;8.120;2023-05-14T23:04:14;43.20;;;38.53;;
16039;SDS011;8124;48.634;8.120;2023-05-14T23:09:17;42.20;;;37.60;;
16039;SDS011;8124;48.634;8.120;2023-05-14T23:14:20;43.15;;;37.80;;
16039;SDS011;8124;48.634;8.120;2023-05-14T23:19:25;42.78;;;37.45;;
16039;SDS011;8124;48.634;8.120;2023-05-14T23:24:27;42.17;;;37.58;;
16039;SDS011;8124;48.634;8.120;2023-05-14T23:29:30;41.85;;;37.33;;
16039;SDS011;8124;48.634;8.120;2023-05-14T23:34:35;42.60;;;37.97;;
16039;SDS011;8124;48.634;8.120;2023-05-14T23:39:38;42.53;;;37.92;;
16039;SDS011;8124;48.634;8.120;2023-05-14T23:44:41;42.67;;;38.03;;
16039;SDS011;8124;48.634;8.120;2023-05-14T23:49:45;41.42;;;36.92;;
16039;SDS011;8124;48.634;8.120;2023-05-14T23:54:48;42.25;;;37.75;;
16039;SDS011;8124;48.634;8.120;2023-05-14T23:59:51;41.63;;;37.10;;
